Coalvale, Kansas
Current Conditions -  °F | °C
As of 4:55 PM on Wednesday 22 Oct 2014 (Local Time) from KPTS Reporting Station
Clear Clear  
Wind Chill: 76°   Ceiling: Unl
Heat Index: 78°   Visibility: 10mi
Dew Point: 62°   Wind: 5mph
Humidity: 62%   Direction: 180°S
Pressure: 30.1"   Gusts: NA
Location:  37.6277°N, 94.7013°W
Report Text: KPTS 222155Z AUTO 18004KT 10SM CLR 25/17 A3010 RMK AO2 T02450167
Loading
Personal Weather Stations






























Interactive Weather Map
Tropical Storm Tracking
New forecast layout! Learn more

10-Day Weather Forecast

Advertisements
Track Severe Weather on mobile